Edinboro, Pennsylvania
Current Conditions -  °F | °C
As of 3:51 PM on Wednesday 17 Dec 2014 (Local Time) from KERI Reporting Station
Overcast Overcast  
Wind Chill: -5°   Ceiling: 1900
Heat Index:   Visibility: 10mi
Dew Point: -4°   Wind: 15mph
Humidity: 72%   Direction: 260°W
Pressure: 30.02"   Gusts: 26mph
Location:  41.88°N, 80.13°W
Report Text: KERI 172051Z 26013G23KT 10SM OVC019 01/M04 A3002 RMK AO2 PK WND 26026/1959 SLP173 60000 T00061039 51006
Loading
Personal Weather Stations






























Interactive Weather Map New forecast layout! Learn more

10-Day Weather Forecast

Advertisements
Track Severe Weather on mobile